createdAt,value
2022-07-31T00:00:29.533Z,19.93
2022-07-31T00:02:58.614Z,19.90
2022-07-31T00:05:26.656Z,19.87
2022-07-31T00:07:55.451Z,19.84
2022-07-31T00:10:23.125Z,19.80
2022-07-31T00:12:50.986Z,19.76
2022-07-31T00:15:19.259Z,19.74
2022-07-31T00:17:47.391Z,19.73
2022-07-31T00:20:16.748Z,19.70
2022-07-31T00:22:46.136Z,19.66
2022-07-31T00:25:15.296Z,19.66
2022-07-31T00:27:43.906Z,19.61
2022-07-31T00:30:17.974Z,19.60
2022-07-31T00:32:46.477Z,19.57
2022-07-31T00:35:17.325Z,19.52
2022-07-31T00:37:48.458Z,19.48
2022-07-31T00:40:17.697Z,19.47
2022-07-31T00:42:45.420Z,19.44
2022-07-31T00:45:14.017Z,19.42
2022-07-31T00:47:42.139Z,19.39
2022-07-31T00:50:10.702Z,19.36
2022-07-31T00:52:38.477Z,19.34
2022-07-31T00:55:06.803Z,19.33
2022-07-31T00:57:34.680Z,19.30
2022-07-31T01:00:02.481Z,19.27
2022-07-31T01:02:31.309Z,19.24
2022-07-31T01:04:58.978Z,19.21
2022-07-31T01:07:27.075Z,19.18
2022-07-31T01:09:56.383Z,19.14
2022-07-31T01:12:50.919Z,19.12
2022-07-31T01:15:22.529Z,19.07
2022-07-31T01:17:53.335Z,19.05
2022-07-31T01:20:21.496Z,19.01
2022-07-31T01:23:07.967Z,18.98
2022-07-31T01:25:48.544Z,18.97
2022-07-31T01:28:41.768Z,18.98
2022-07-31T01:31:26.529Z,18.96
2022-07-31T01:34:03.822Z,18.94
2022-07-31T01:36:36.018Z,18.95
2022-07-31T01:39:04.801Z,18.93
2022-07-31T01:41:39.292Z,18.91
2022-07-31T01:44:14.255Z,18.91
2022-07-31T01:46:44.838Z,18.88
2022-07-31T01:49:14.592Z,18.86
2022-07-31T01:51:46.162Z,18.82
2022-07-31T01:54:15.919Z,18.84
2022-07-31T01:56:45.261Z,18.84
2022-07-31T01:59:20.071Z,18.89
2022-07-31T02:01:50.796Z,18.89
2022-07-31T02:04:21.025Z,18.86
2022-07-31T02:06:52.533Z,18.85
2022-07-31T02:09:21.879Z,18.84
2022-07-31T02:11:54.420Z,18.82
2022-07-31T02:14:23.936Z,18.82
2022-07-31T02:16:52.968Z,18.78
2022-07-31T02:19:22.464Z,18.73
2022-07-31T02:21:51.218Z,18.71
2022-07-31T02:24:19.115Z,18.66
2022-07-31T02:26:48.567Z,18.66
2022-07-31T02:29:20.345Z,18.65
2022-07-31T02:32:01.793Z,18.67
2022-07-31T02:34:39.460Z,18.66
2022-07-31T02:37:08.690Z,18.64
2022-07-31T02:39:39.101Z,18.65
2022-07-31T02:42:07.810Z,18.64
2022-07-31T02:44:35.932Z,18.63
2022-07-31T02:47:06.295Z,18.62
2022-07-31T02:49:37.281Z,18.63
2022-07-31T02:52:06.978Z,18.60
2022-07-31T02:54:37.911Z,18.59
2022-07-31T02:57:05.806Z,18.56
2022-07-31T02:59:37.297Z,18.57
2022-07-31T03:02:06.122Z,18.60
2022-07-31T03:04:34.157Z,18.61
2022-07-31T03:07:01.829Z,18.62
2022-07-31T03:09:31.700Z,18.62
2022-07-31T03:12:01.850Z,18.60
2022-07-31T03:14:35.460Z,18.60
2022-07-31T03:17:04.493Z,18.63
2022-07-31T03:19:33.428Z,18.68
2022-07-31T03:22:02.029Z,18.71
2022-07-31T03:24:30.744Z,18.83
2022-07-31T03:26:58.491Z,18.95
2022-07-31T03:29:39.300Z,18.99
2022-07-31T03:32:11.293Z,19.03
2022-07-31T03:34:39.031Z,19.04
2022-07-31T03:37:06.710Z,19.08
2022-07-31T03:39:34.391Z,19.06
2022-07-31T03:42:04.041Z,19.02
2022-07-31T03:44:33.846Z,18.99
2022-07-31T03:47:02.120Z,18.97
2022-07-31T03:49:31.237Z,18.99
2022-07-31T03:51:59.389Z,18.95
2022-07-31T03:54:27.455Z,18.97
2022-07-31T03:56:59.048Z,19.02
2022-07-31T03:59:28.398Z,19.06
2022-07-31T04:02:01.756Z,19.06
2022-07-31T04:04:35.705Z,19.05
2022-07-31T04:07:03.356Z,19.08
2022-07-31T04:09:31.063Z,19.11
2022-07-31T04:11:58.953Z,19.11
2022-07-31T04:14:26.673Z,19.18
2022-07-31T04:16:54.334Z,19.20
2022-07-31T04:19:22.006Z,19.21
2022-07-31T04:21:51.449Z,19.23
2022-07-31T04:24:19.515Z,19.22
2022-07-31T04:26:47.151Z,19.32
2022-07-31T04:29:14.805Z,19.33
2022-07-31T04:31:42.486Z,19.31
2022-07-31T04:34:10.361Z,19.29
2022-07-31T04:36:39.075Z,19.23
2022-07-31T04:39:07.046Z,19.24
2022-07-31T04:41:34.790Z,19.23
2022-07-31T04:44:02.447Z,19.20
2022-07-31T04:46:30.119Z,19.17
2022-07-31T04:48:58.074Z,19.14
2022-07-31T04:51:25.987Z,19.08
2022-07-31T04:53:53.889Z,19.01
2022-07-31T04:56:57.136Z,19.01
2022-07-31T05:00:00.508Z,19.00
2022-07-31T05:02:12.831Z,18.99
2022-07-31T05:04:40.533Z,19.01
2022-07-31T05:07:08.225Z,19.04
2022-07-31T05:09:36.714Z,19.05
2022-07-31T05:12:05.105Z,19.04
2022-07-31T05:14:33.066Z,19.06
2022-07-31T05:17:00.847Z,19.08
2022-07-31T05:19:30.956Z,19.07
2022-07-31T05:22:02.569Z,19.08
2022-07-31T05:24:33.079Z,19.09
2022-07-31T05:27:05.291Z,19.10
2022-07-31T05:29:34.029Z,19.12
2022-07-31T05:32:02.310Z,19.19
2022-07-31T05:34:30.960Z,19.29
2022-07-31T05:37:02.752Z,19.35
2022-07-31T05:39:31.290Z,19.38
2022-07-31T05:41:59.030Z,19.34
2022-07-31T05:44:26.871Z,19.36
2022-07-31T05:49:21.064Z,19.45
2022-07-31T05:51:49.401Z,19.46
2022-07-31T05:54:17.052Z,19.47
2022-07-31T05:56:44.736Z,19.50
2022-07-31T05:59:12.434Z,19.55
2022-07-31T06:01:40.176Z,19.58
2022-07-31T06:04:07.851Z,19.59
2022-07-31T06:06:35.510Z,19.62
2022-07-31T06:09:04.841Z,19.62
2022-07-31T06:11:33.194Z,19.62
2022-07-31T06:14:01.142Z,19.64
2022-07-31T06:16:28.784Z,19.69
2022-07-31T06:18:56.434Z,19.71
2022-07-31T06:21:27.520Z,19.75
2022-07-31T06:23:57.886Z,19.77
2022-07-31T06:26:26.193Z,19.88
2022-07-31T06:28:55.398Z,20.01
2022-07-31T06:31:23.769Z,20.06
2022-07-31T06:33:52.653Z,20.12
2022-07-31T06:36:20.985Z,20.13
2022-07-31T06:38:48.843Z,20.14
2022-07-31T06:41:36.617Z,20.19
2022-07-31T06:44:06.001Z,20.19
2022-07-31T06:46:33.723Z,20.24
2022-07-31T06:49:05.553Z,20.31
2022-07-31T06:51:36.210Z,20.40
2022-07-31T06:54:05.851Z,20.46
2022-07-31T06:56:35.139Z,20.53
2022-07-31T06:59:03.418Z,20.57
2022-07-31T07:01:31.378Z,20.62
2022-07-31T07:03:59.108Z,20.68
2022-07-31T07:06:27.182Z,20.71
2022-07-31T07:08:54.998Z,20.75
2022-07-31T07:11:22.699Z,20.78
2022-07-31T07:13:50.678Z,20.79
2022-07-31T07:16:18.460Z,20.78
2022-07-31T07:18:46.161Z,20.81
2022-07-31T07:21:14.456Z,20.85
2022-07-31T07:23:42.294Z,20.92
2022-07-31T07:26:10.016Z,21.03
2022-07-31T07:28:38.013Z,21.13
2022-07-31T07:31:06.661Z,21.21
2022-07-31T07:33:39.870Z,21.27
2022-07-31T07:36:21.748Z,21.27
2022-07-31T07:38:56.137Z,21.28
2022-07-31T07:41:27.600Z,21.32
2022-07-31T07:43:55.470Z,21.36
2022-07-31T07:46:24.674Z,21.39
2022-07-31T07:48:52.736Z,21.44
2022-07-31T07:51:21.492Z,21.47
2022-07-31T07:53:49.460Z,21.54
2022-07-31T07:56:17.660Z,21.63
2022-07-31T07:58:45.388Z,21.71
2022-07-31T08:01:13.931Z,21.79
2022-07-31T08:03:48.352Z,21.88
2022-07-31T08:06:21.351Z,21.93
2022-07-31T08:08:49.507Z,22.03
2022-07-31T08:11:18.074Z,22.08
2022-07-31T08:13:50.577Z,22.14
2022-07-31T08:16:19.938Z,22.23
2022-07-31T08:18:47.607Z,22.30
2022-07-31T08:21:15.545Z,22.38
2022-07-31T08:23:43.421Z,22.47
2022-07-31T08:26:11.570Z,22.57
2022-07-31T08:28:41.380Z,22.70
2022-07-31T08:31:09.257Z,22.82
2022-07-31T08:33:36.946Z,22.92
2022-07-31T08:36:05.892Z,23.04
2022-07-31T08:38:33.592Z,23.12
2022-07-31T08:41:01.341Z,23.20
2022-07-31T08:44:01.575Z,23.29
2022-07-31T08:46:19.578Z,23.39
2022-07-31T08:48:47.835Z,23.49
2022-07-31T08:51:17.925Z,23.58
2022-07-31T08:53:46.467Z,23.68
2022-07-31T08:56:14.586Z,23.76
2022-07-31T08:58:42.663Z,23.90
2022-07-31T09:01:13.490Z,23.99
2022-07-31T09:03:41.449Z,24.09
2022-07-31T09:06:09.172Z,24.17
2022-07-31T09:08:39.340Z,24.23
2022-07-31T09:11:12.489Z,24.31
2022-07-31T09:13:40.609Z,24.38
2022-07-31T09:16:08.579Z,24.44
2022-07-31T09:18:36.369Z,24.52
2022-07-31T09:21:07.448Z,24.60
2022-07-31T09:23:44.789Z,24.68
2022-07-31T09:26:12.482Z,24.76
2022-07-31T09:28:43.227Z,24.85
2022-07-31T09:31:12.432Z,24.89
2022-07-31T09:33:45.525Z,24.94
2022-07-31T09:36:14.833Z,24.99
2022-07-31T09:38:44.331Z,25.02
2022-07-31T09:41:55.745Z,25.08
2022-07-31T09:44:11.019Z,25.14
2022-07-31T09:46:49.375Z,25.19
2022-07-31T09:49:18.184Z,25.27
2022-07-31T09:51:48.113Z,25.33
2022-07-31T09:54:26.925Z,25.39
2022-07-31T09:56:54.877Z,25.43
2022-07-31T09:59:22.678Z,25.51
2022-07-31T10:01:51.057Z,25.57
2022-07-31T10:04:20.179Z,25.64
2022-07-31T10:06:50.421Z,25.70
2022-07-31T10:09:21.397Z,25.75
2022-07-31T10:11:51.154Z,25.77
2022-07-31T10:14:33.568Z,25.83
2022-07-31T10:17:05.723Z,25.86
2022-07-31T10:19:37.883Z,25.89
2022-07-31T10:22:07.908Z,25.90
2022-07-31T10:24:44.258Z,25.95
2022-07-31T10:27:13.382Z,25.99
2022-07-31T10:29:41.613Z,26.06
2022-07-31T10:32:10.206Z,26.11
2022-07-31T10:34:38.916Z,26.17
2022-07-31T10:37:16.240Z,26.19
2022-07-31T10:39:57.818Z,26.18
2022-07-31T10:42:44.160Z,26.17
2022-07-31T10:45:15.138Z,26.24
2022-07-31T10:48:04.123Z,26.31
2022-07-31T10:50:31.839Z,26.38
2022-07-31T10:53:17.509Z,26.44
2022-07-31T10:55:45.713Z,26.48
2022-07-31T10:58:17.814Z,26.53
2022-07-31T11:00:46.563Z,26.57
2022-07-31T11:03:22.015Z,26.58
2022-07-31T11:06:02.085Z,26.59
2022-07-31T11:08:42.256Z,26.60
2022-07-31T11:11:11.295Z,26.62
2022-07-31T11:13:59.027Z,26.66
2022-07-31T11:16:27.641Z,26.73
2022-07-31T11:19:07.302Z,26.78
2022-07-31T11:21:39.069Z,26.84
2022-07-31T11:24:20.525Z,26.88
2022-07-31T11:26:55.791Z,26.90
2022-07-31T11:29:58.579Z,26.94
2022-07-31T11:32:30.594Z,26.99
2022-07-31T11:34:59.010Z,27.07
2022-07-31T11:37:37.549Z,27.10
2022-07-31T11:40:17.423Z,27.14
2022-07-31T11:43:04.665Z,27.22
2022-07-31T11:45:46.998Z,27.30
2022-07-31T11:48:18.976Z,27.30
2022-07-31T11:50:47.864Z,27.27
2022-07-31T11:53:15.790Z,27.23
2022-07-31T11:55:58.344Z,27.21
2022-07-31T11:58:28.547Z,27.25
2022-07-31T12:01:04.017Z,27.28
2022-07-31T12:03:31.704Z,27.32
2022-07-31T12:05:59.983Z,27.38
2022-07-31T12:08:28.354Z,27.42
2022-07-31T12:10:57.359Z,27.51
2022-07-31T12:13:26.197Z,27.53
2022-07-31T12:16:01.135Z,27.56
2022-07-31T12:18:30.131Z,27.54
2022-07-31T12:21:06.070Z,27.55
2022-07-31T12:23:45.443Z,27.60
2022-07-31T12:26:22.238Z,27.66
2022-07-31T12:29:04.606Z,27.67
2022-07-31T12:31:45.152Z,27.76
2022-07-31T12:34:13.041Z,27.82
2022-07-31T12:36:40.719Z,27.84
2022-07-31T12:39:08.386Z,27.76
2022-07-31T12:41:44.344Z,27.63
2022-07-31T12:44:14.455Z,27.48
2022-07-31T12:46:42.687Z,27.45
2022-07-31T12:49:10.554Z,27.45
2022-07-31T12:51:45.793Z,27.49
2022-07-31T12:54:16.046Z,27.54
2022-07-31T12:56:44.207Z,27.55
2022-07-31T12:59:12.381Z,27.51
2022-07-31T13:01:40.201Z,27.41
2022-07-31T13:04:18.722Z,27.35
2022-07-31T13:06:49.663Z,27.32
2022-07-31T13:09:17.376Z,27.28
2022-07-31T13:11:48.363Z,27.16
2022-07-31T13:14:22.332Z,27.03
2022-07-31T13:16:51.652Z,26.93
2022-07-31T13:19:19.483Z,26.93
2022-07-31T13:21:49.274Z,26.93
2022-07-31T13:24:21.264Z,26.92
2022-07-31T13:26:50.482Z,26.87
2022-07-31T13:29:18.713Z,26.86
2022-07-31T13:31:46.554Z,26.85
2022-07-31T13:34:14.429Z,26.84
2022-07-31T13:36:42.192Z,26.81
2022-07-31T13:39:10.271Z,26.76
2022-07-31T13:41:40.175Z,26.71
2022-07-31T13:44:08.269Z,26.71
2022-07-31T13:46:36.201Z,26.72
2022-07-31T13:49:09.208Z,26.75
2022-07-31T13:51:38.513Z,26.79
2022-07-31T13:54:06.973Z,26.80
2022-07-31T13:56:41.869Z,26.82
2022-07-31T13:59:12.154Z,26.85
2022-07-31T14:02:04.573Z,26.85
2022-07-31T14:04:32.296Z,26.85
2022-07-31T14:07:04.377Z,26.86
2022-07-31T14:09:35.142Z,26.88
2022-07-31T14:12:03.868Z,26.87
2022-07-31T14:14:32.803Z,26.86
2022-07-31T14:17:00.579Z,26.85
2022-07-31T14:19:28.350Z,26.83
2022-07-31T14:21:57.357Z,26.83
2022-07-31T14:24:26.854Z,26.84
2022-07-31T14:26:54.673Z,26.86
2022-07-31T14:29:22.408Z,26.87
2022-07-31T14:31:50.206Z,26.91
2022-07-31T14:34:17.848Z,26.92
2022-07-31T14:36:45.531Z,26.94
2022-07-31T14:39:13.215Z,26.97
2022-07-31T14:41:40.890Z,26.98
2022-07-31T14:44:08.623Z,26.98
2022-07-31T14:46:36.334Z,26.99
2022-07-31T14:49:05.644Z,27.00
2022-07-31T14:51:33.350Z,26.98
2022-07-31T14:54:01.270Z,26.93
2022-07-31T14:56:58.413Z,26.91
2022-07-31T14:59:16.594Z,26.88
2022-07-31T15:01:44.336Z,26.88
2022-07-31T15:04:12.034Z,26.85
2022-07-31T15:06:56.132Z,26.80
2022-07-31T15:09:27.651Z,26.74
2022-07-31T15:12:01.282Z,26.66
2022-07-31T15:14:30.727Z,26.60
2022-07-31T15:16:58.821Z,26.55
2022-07-31T15:19:26.495Z,26.52
2022-07-31T15:22:10.778Z,26.57
2022-07-31T15:24:48.182Z,26.68
2022-07-31T15:27:17.442Z,26.74
2022-07-31T15:30:00.593Z,26.71
2022-07-31T15:32:32.871Z,26.68
2022-07-31T15:35:00.622Z,26.67
2022-07-31T15:37:28.348Z,26.69
2022-07-31T15:40:02.367Z,26.70
2022-07-31T15:42:31.221Z,26.78
2022-07-31T15:44:58.941Z,26.86
2022-07-31T15:47:26.916Z,26.91
2022-07-31T15:49:54.660Z,26.92
2022-07-31T15:52:22.390Z,26.97
2022-07-31T15:54:51.832Z,27.05
2022-07-31T15:57:21.543Z,27.12
2022-07-31T15:59:50.113Z,27.22
2022-07-31T16:02:18.077Z,27.29
2022-07-31T16:04:52.697Z,27.34
2022-07-31T16:08:29.095Z,27.39
2022-07-31T16:10:18.006Z,27.53
2022-07-31T16:12:49.648Z,27.67
2022-07-31T16:15:18.125Z,27.80
2022-07-31T16:17:46.347Z,27.98
2022-07-31T16:20:26.102Z,28.12
2022-07-31T16:22:59.770Z,28.28
2022-07-31T16:25:29.278Z,28.44
2022-07-31T16:28:00.462Z,28.56
2022-07-31T16:30:28.496Z,28.67
2022-07-31T16:32:56.259Z,28.76
2022-07-31T16:35:27.173Z,28.84
2022-07-31T16:37:55.777Z,28.94
2022-07-31T16:40:28.157Z,29.03
2022-07-31T16:43:50.840Z,29.10
2022-07-31T16:45:51.870Z,29.16
2022-07-31T16:48:19.586Z,29.27
2022-07-31T16:50:48.476Z,29.32
2022-07-31T16:54:12.706Z,29.38
2022-07-31T16:56:17.752Z,29.47
2022-07-31T16:58:45.441Z,29.52
2022-07-31T17:01:56.757Z,29.57
2022-07-31T17:04:04.072Z,29.63
2022-07-31T17:06:39.650Z,29.69
2022-07-31T17:09:17.076Z,29.75
2022-07-31T17:11:56.659Z,29.76
2022-07-31T17:14:27.931Z,29.73
2022-07-31T17:16:57.269Z,29.74
2022-07-31T17:19:36.270Z,29.71
2022-07-31T17:22:11.781Z,29.57
2022-07-31T17:24:51.642Z,29.46
2022-07-31T17:27:20.481Z,29.34
2022-07-31T17:29:48.382Z,29.22
2022-07-31T17:32:18.220Z,29.08
2022-07-31T17:34:47.328Z,28.98
2022-07-31T17:37:15.022Z,28.86
2022-07-31T17:39:42.731Z,28.75
2022-07-31T17:42:10.652Z,28.65
2022-07-31T17:44:39.883Z,28.53
2022-07-31T17:47:08.535Z,28.41
2022-07-31T17:49:37.491Z,28.34
2022-07-31T17:52:05.685Z,28.24
2022-07-31T17:54:33.834Z,28.18
2022-07-31T17:57:01.657Z,28.10
2022-07-31T17:59:30.278Z,28.02
2022-07-31T18:02:01.349Z,27.94
2022-07-31T18:04:33.118Z,27.86
2022-07-31T18:07:02.311Z,27.81
2022-07-31T18:09:30.078Z,27.78
2022-07-31T18:11:58.801Z,27.71
2022-07-31T18:14:27.207Z,27.67
2022-07-31T18:16:55.492Z,27.62
2022-07-31T18:19:23.676Z,27.58
2022-07-31T18:21:52.105Z,27.56
2022-07-31T18:24:21.329Z,27.54
2022-07-31T18:26:50.372Z,27.51
2022-07-31T18:29:19.026Z,27.50
2022-07-31T18:31:47.855Z,27.48
2022-07-31T18:34:16.264Z,27.46
2022-07-31T18:36:44.070Z,27.43
2022-07-31T18:39:11.937Z,27.40
2022-07-31T18:41:39.623Z,27.40
2022-07-31T18:44:07.419Z,27.36
2022-07-31T18:46:35.895Z,27.33
2022-07-31T18:49:03.963Z,27.28
2022-07-31T18:51:31.844Z,27.22
2022-07-31T18:53:59.803Z,27.19
2022-07-31T18:56:28.251Z,27.15
2022-07-31T18:58:55.993Z,27.13
2022-07-31T19:01:24.778Z,27.06
2022-07-31T19:03:53.428Z,27.00
2022-07-31T19:06:21.791Z,26.96
2022-07-31T19:08:50.541Z,26.88
2022-07-31T19:11:18.491Z,26.83
2022-07-31T19:13:46.880Z,26.76
2022-07-31T19:16:15.915Z,26.70
2022-07-31T19:18:45.559Z,26.61
2022-07-31T19:21:40.974Z,26.57
2022-07-31T19:24:06.073Z,26.49
2022-07-31T19:26:33.805Z,26.41
2022-07-31T19:29:01.508Z,26.33
2022-07-31T19:31:29.223Z,26.27
2022-07-31T19:33:56.990Z,26.22
2022-07-31T19:36:24.661Z,26.15
2022-07-31T19:38:52.458Z,26.08
2022-07-31T19:41:20.347Z,26.04
2022-07-31T19:43:48.107Z,25.98
2022-07-31T19:46:15.786Z,25.91
2022-07-31T19:48:47.696Z,25.85
2022-07-31T19:51:17.010Z,25.81
2022-07-31T19:53:45.846Z,25.74
2022-07-31T19:56:20.149Z,25.67
2022-07-31T19:58:49.487Z,25.63
2022-07-31T20:01:17.282Z,25.54
2022-07-31T20:03:45.098Z,25.50
2022-07-31T20:06:12.891Z,25.44
2022-07-31T20:08:40.718Z,25.39
2022-07-31T20:11:08.754Z,25.32
2022-07-31T20:13:38.957Z,25.26
2022-07-31T20:16:06.842Z,25.20
2022-07-31T20:18:34.575Z,25.15
2022-07-31T20:21:10.880Z,25.09
2022-07-31T20:23:40.067Z,25.03
2022-07-31T20:26:10.037Z,24.98
2022-07-31T20:28:40.160Z,24.89
2022-07-31T20:31:15.759Z,24.85
2022-07-31T20:33:56.694Z,24.82
2022-07-31T20:36:26.863Z,24.79
2022-07-31T20:38:54.992Z,24.75
2022-07-31T20:41:22.720Z,24.72
2022-07-31T20:43:50.420Z,24.70
2022-07-31T20:46:19.304Z,24.67
2022-07-31T20:48:47.000Z,24.64
2022-07-31T20:51:21.368Z,24.64
2022-07-31T20:53:49.736Z,24.63
2022-07-31T20:56:17.809Z,24.59
2022-07-31T20:58:50.983Z,24.60
2022-07-31T21:01:21.276Z,24.58
2022-07-31T21:03:49.621Z,24.57
2022-07-31T21:06:17.634Z,24.54
2022-07-31T21:08:45.397Z,24.49
2022-07-31T21:11:13.257Z,24.47
2022-07-31T21:13:43.008Z,24.44
2022-07-31T21:16:10.687Z,24.39
2022-07-31T21:18:43.320Z,24.39
2022-07-31T21:21:11.489Z,24.37
2022-07-31T21:23:39.306Z,24.35
2022-07-31T21:26:08.770Z,24.34
2022-07-31T21:28:36.956Z,24.33
2022-07-31T21:31:05.478Z,24.31
2022-07-31T21:33:33.611Z,24.30
2022-07-31T21:36:01.702Z,24.27
2022-07-31T21:38:29.516Z,24.27
2022-07-31T21:40:57.426Z,24.26
2022-07-31T21:43:25.520Z,24.29
2022-07-31T21:45:57.690Z,24.30
2022-07-31T21:48:30.911Z,24.31
2022-07-31T21:51:00.003Z,24.31
2022-07-31T21:53:27.875Z,24.28
2022-07-31T21:55:55.557Z,24.25
2022-07-31T21:58:23.379Z,24.26
2022-07-31T22:00:51.098Z,24.24
2022-07-31T22:03:18.782Z,24.22
2022-07-31T22:06:05.275Z,24.20
2022-07-31T22:08:32.981Z,24.16
2022-07-31T22:11:00.642Z,24.13
2022-07-31T22:13:28.356Z,24.05
2022-07-31T22:16:00.058Z,24.01
2022-07-31T22:18:30.597Z,23.98
2022-07-31T22:20:59.774Z,23.92
2022-07-31T22:23:28.692Z,23.88
2022-07-31T22:25:57.334Z,23.81
2022-07-31T22:28:26.373Z,23.78
2022-07-31T22:30:55.514Z,23.75
2022-07-31T22:33:24.258Z,23.73
2022-07-31T22:35:59.889Z,23.69
2022-07-31T22:38:32.229Z,23.65
2022-07-31T22:41:00.710Z,23.57
2022-07-31T22:44:10.751Z,23.54
2022-07-31T22:46:17.150Z,23.51
2022-07-31T22:48:46.774Z,23.45
2022-07-31T22:51:15.591Z,23.41
2022-07-31T22:53:48.861Z,23.36
2022-07-31T22:56:17.290Z,23.32
2022-07-31T22:58:44.981Z,23.27
2022-07-31T23:01:12.727Z,23.22
2022-07-31T23:03:40.391Z,23.20
2022-07-31T23:06:31.358Z,23.12
2022-07-31T23:08:56.966Z,23.07
2022-07-31T23:11:25.593Z,23.01
2022-07-31T23:13:53.322Z,22.93
2022-07-31T23:16:21.484Z,22.90
2022-07-31T23:18:50.526Z,22.85
2022-07-31T23:21:19.688Z,22.84
2022-07-31T23:23:47.952Z,22.82
2022-07-31T23:26:16.753Z,22.78
2022-07-31T23:28:44.432Z,22.80
2022-07-31T23:31:12.080Z,22.78
2022-07-31T23:33:39.799Z,22.77
2022-07-31T23:36:07.656Z,22.74
2022-07-31T23:38:35.420Z,22.67
2022-07-31T23:41:03.835Z,22.64
2022-07-31T23:43:31.855Z,22.52
2022-07-31T23:45:59.636Z,22.52
2022-07-31T23:48:29.876Z,22.48
2022-07-31T23:50:58.652Z,22.42
2022-07-31T23:53:26.342Z,22.33
2022-07-31T23:55:54.039Z,22.23
2022-07-31T23:58:21.976Z,22.16
